sensor_id;sensor_type;location;lat;lon;timestamp;pressure;altitude;pressure_sealevel;temperature;humidity
4273;BME280;63887;53.656;9.810;2023-05-07T00:01:36;102116.69;;;9.34;85.56
4273;BME280;63887;53.656;9.810;2023-05-07T00:04:03;102121.81;;;9.37;85.37
4273;BME280;63887;53.656;9.810;2023-05-07T00:06:29;102125.75;;;9.53;85.18
4273;BME280;63887;53.656;9.810;2023-05-07T00:08:56;102135.75;;;9.39;84.91
4273;BME280;63887;53.656;9.810;2023-05-07T00:11:22;102130.25;;;9.48;85.15
4273;BME280;63887;53.656;9.810;2023-05-07T00:13:48;102123.09;;;9.55;84.88
4273;BME280;63887;53.656;9.810;2023-05-07T00:16:14;102126.97;;;9.42;85.71
4273;BME280;63887;53.656;9.810;2023-05-07T00:18:42;102133.19;;;9.38;86.48
4273;BME280;63887;53.656;9.810;2023-05-07T00:21:08;102127.63;;;9.48;85.01
4273;BME280;63887;53.656;9.810;2023-05-07T00:23:35;102126.72;;;9.49;84.77
4273;BME280;63887;53.656;9.810;2023-05-07T00:26:01;102125.66;;;9.56;85.08
4273;BME280;63887;53.656;9.810;2023-05-07T00:28:27;102136.66;;;9.38;85.29
4273;BME280;63887;53.656;9.810;2023-05-07T00:30:53;102130.66;;;9.64;84.14
4273;BME280;63887;53.656;9.810;2023-05-07T00:33:20;102132.81;;;9.50;84.45
4273;BME280;63887;53.656;9.810;2023-05-07T00:35:48;102131.06;;;9.50;83.86
4273;BME280;63887;53.656;9.810;2023-05-07T00:38:15;102127.84;;;9.41;84.43
4273;BME280;63887;53.656;9.810;2023-05-07T00:40:41;102121.72;;;9.42;84.64
4273;BME280;63887;53.656;9.810;2023-05-07T00:43:07;102128.66;;;9.43;84.48
4273;BME280;63887;53.656;9.810;2023-05-07T00:45:33;102119.06;;;9.43;84.61
4273;BME280;63887;53.656;9.810;2023-05-07T00:48:00;102117.25;;;9.45;84.08
4273;BME280;63887;53.656;9.810;2023-05-07T00:50:27;102117.97;;;9.19;85.32
4273;BME280;63887;53.656;9.810;2023-05-07T00:52:55;102121.25;;;9.27;85.65
4273;BME280;63887;53.656;9.810;2023-05-07T00:55:22;102113.69;;;9.48;84.47
4273;BME280;63887;53.656;9.810;2023-05-07T00:57:49;102110.44;;;9.40;84.49
4273;BME280;63887;53.656;9.810;2023-05-07T01:00:16;102115.47;;;9.46;84.05
4273;BME280;63887;53.656;9.810;2023-05-07T01:02:43;102113.06;;;9.40;84.63
4273;BME280;63887;53.656;9.810;2023-05-07T01:05:09;102107.84;;;9.38;84.67
4273;BME280;63887;53.656;9.810;2023-05-07T01:07:37;102113.19;;;9.34;84.59
4273;BME280;63887;53.656;9.810;2023-05-07T01:10:07;102111.09;;;9.46;84.42
4273;BME280;63887;53.656;9.810;2023-05-07T01:12:34;102120.97;;;9.37;84.24
4273;BME280;63887;53.656;9.810;2023-05-07T01:15:01;102112.88;;;9.46;84.25
4273;BME280;63887;53.656;9.810;2023-05-07T01:17:27;102115.47;;;9.46;84.04
4273;BME280;63887;53.656;9.810;2023-05-07T01:19:54;102111.19;;;9.43;84.04
4273;BME280;63887;53.656;9.810;2023-05-07T01:22:27;102113.16;;;9.35;84.42
4273;BME280;63887;53.656;9.810;2023-05-07T01:24:55;102110.59;;;9.34;85.16
4273;BME280;63887;53.656;9.810;2023-05-07T01:27:21;102102.25;;;9.50;83.58
4273;BME280;63887;53.656;9.810;2023-05-07T01:29:47;102108.72;;;9.39;84.09
4273;BME280;63887;53.656;9.810;2023-05-07T01:32:13;102096.44;;;9.41;84.07
4273;BME280;63887;53.656;9.810;2023-05-07T01:34:41;102104.41;;;9.36;84.40
4273;BME280;63887;53.656;9.810;2023-05-07T01:37:09;102099.69;;;9.49;83.21
4273;BME280;63887;53.656;9.810;2023-05-07T01:39:37;102103.09;;;9.51;82.69
4273;BME280;63887;53.656;9.810;2023-05-07T01:42:05;102097.28;;;9.41;82.73
4273;BME280;63887;53.656;9.810;2023-05-07T01:44:31;102104.09;;;9.47;82.97
4273;BME280;63887;53.656;9.810;2023-05-07T01:46:58;102102.22;;;9.21;84.13
4273;BME280;63887;53.656;9.810;2023-05-07T01:49:24;102109.69;;;9.35;83.77
4273;BME280;63887;53.656;9.810;2023-05-07T01:51:51;102108.09;;;9.29;83.85
4273;BME280;63887;53.656;9.810;2023-05-07T01:54:17;102110.38;;;9.41;82.97
4273;BME280;63887;53.656;9.810;2023-05-07T01:56:45;102111.66;;;9.26;83.44
4273;BME280;63887;53.656;9.810;2023-05-07T01:59:13;102110.72;;;9.29;83.33
4273;BME280;63887;53.656;9.810;2023-05-07T02:01:39;102113.38;;;9.27;83.80
4273;BME280;63887;53.656;9.810;2023-05-07T02:04:05;102114.09;;;9.33;84.18
4273;BME280;63887;53.656;9.810;2023-05-07T02:06:31;102114.66;;;9.13;84.47
4273;BME280;63887;53.656;9.810;2023-05-07T02:08:58;102117.09;;;9.19;83.82
4273;BME280;63887;53.656;9.810;2023-05-07T02:11:24;102115.19;;;9.25;83.56
4273;BME280;63887;53.656;9.810;2023-05-07T02:13:52;102130.72;;;9.32;83.09
4273;BME280;63887;53.656;9.810;2023-05-07T02:16:19;102130.72;;;9.32;83.00
4273;BME280;63887;53.656;9.810;2023-05-07T02:18:46;102133.25;;;9.35;83.18
4273;BME280;63887;53.656;9.810;2023-05-07T02:21:12;102134.00;;;9.40;82.99
4273;BME280;63887;53.656;9.810;2023-05-07T02:23:38;102138.63;;;9.30;83.07
4273;BME280;63887;53.656;9.810;2023-05-07T02:26:05;102139.75;;;9.20;83.81
4273;BME280;63887;53.656;9.810;2023-05-07T02:28:31;102134.16;;;9.34;83.37
4273;BME280;63887;53.656;9.810;2023-05-07T02:31:01;102143.66;;;9.38;83.47
4273;BME280;63887;53.656;9.810;2023-05-07T02:33:28;102143.69;;;9.36;83.12
4273;BME280;63887;53.656;9.810;2023-05-07T02:35:54;102138.56;;;9.32;84.04
4273;BME280;63887;53.656;9.810;2023-05-07T02:38:21;102132.16;;;9.43;83.39
4273;BME280;63887;53.656;9.810;2023-05-07T02:40:47;102133.94;;;9.41;83.39
4273;BME280;63887;53.656;9.810;2023-05-07T02:43:13;102139.88;;;9.48;83.29
4273;BME280;63887;53.656;9.810;2023-05-07T02:45:40;102137.13;;;9.52;82.38
4273;BME280;63887;53.656;9.810;2023-05-07T02:48:07;102132.75;;;9.53;82.49
4273;BME280;63887;53.656;9.810;2023-05-07T02:50:34;102141.53;;;9.50;82.63
4273;BME280;63887;53.656;9.810;2023-05-07T02:53:00;102139.16;;;9.43;83.53
4273;BME280;63887;53.656;9.810;2023-05-07T02:55:26;102139.97;;;9.45;82.90
4273;BME280;63887;53.656;9.810;2023-05-07T02:57:52;102145.38;;;9.39;83.25
4273;BME280;63887;53.656;9.810;2023-05-07T03:00:19;102146.34;;;9.35;83.54
4273;BME280;63887;53.656;9.810;2023-05-07T03:02:45;102154.56;;;9.21;84.48
4273;BME280;63887;53.656;9.810;2023-05-07T03:05:13;102154.56;;;9.21;84.28
4273;BME280;63887;53.656;9.810;2023-05-07T03:07:39;102156.53;;;9.13;84.73
4273;BME280;63887;53.656;9.810;2023-05-07T03:10:10;102147.03;;;9.10;84.72
4273;BME280;63887;53.656;9.810;2023-05-07T03:12:36;102161.06;;;9.08;84.60
4273;BME280;63887;53.656;9.810;2023-05-07T03:15:02;102157.44;;;9.12;84.19
4273;BME280;63887;53.656;9.810;2023-05-07T03:17:29;102157.28;;;9.18;84.08
4273;BME280;63887;53.656;9.810;2023-05-07T03:19:55;102155.47;;;9.20;84.67
4273;BME280;63887;53.656;9.810;2023-05-07T03:22:23;102153.50;;;9.28;84.46
4273;BME280;63887;53.656;9.810;2023-05-07T03:24:49;102154.50;;;9.24;84.52
4273;BME280;63887;53.656;9.810;2023-05-07T03:27:15;102152.81;;;9.21;85.04
4273;BME280;63887;53.656;9.810;2023-05-07T03:29:41;102147.47;;;9.26;84.21
4273;BME280;63887;53.656;9.810;2023-05-07T03:32:08;102150.53;;;9.42;84.20
4273;BME280;63887;53.656;9.810;2023-05-07T03:34:34;102153.97;;;9.44;83.51
4273;BME280;63887;53.656;9.810;2023-05-07T03:37:00;102148.97;;;9.35;83.90
4273;BME280;63887;53.656;9.810;2023-05-07T03:39:28;102152.47;;;9.34;84.16
4273;BME280;63887;53.656;9.810;2023-05-07T03:41:55;102149.63;;;9.10;84.91
4273;BME280;63887;53.656;9.810;2023-05-07T03:44:21;102151.94;;;9.22;84.09
4273;BME280;63887;53.656;9.810;2023-05-07T03:46:47;102153.84;;;9.16;84.41
4273;BME280;63887;53.656;9.810;2023-05-07T03:49:13;102154.75;;;9.15;84.22
4273;BME280;63887;53.656;9.810;2023-05-07T03:51:40;102152.47;;;9.01;85.06
4273;BME280;63887;53.656;9.810;2023-05-07T03:54:06;102158.31;;;9.12;84.94
4273;BME280;63887;53.656;9.810;2023-05-07T03:56:34;102155.78;;;9.09;84.98
4273;BME280;63887;53.656;9.810;2023-05-07T03:59:00;102152.22;;;9.12;84.95
4273;BME280;63887;53.656;9.810;2023-05-07T04:01:27;102157.41;;;9.13;84.92
4273;BME280;63887;53.656;9.810;2023-05-07T04:03:53;102157.19;;;9.21;84.79
4273;BME280;63887;53.656;9.810;2023-05-07T04:06:19;102160.69;;;9.20;84.41
4273;BME280;63887;53.656;9.810;2023-05-07T04:08:46;102164.91;;;9.27;83.78
4273;BME280;63887;53.656;9.810;2023-05-07T04:11:12;102173.38;;;9.35;83.36
4273;BME280;63887;53.656;9.810;2023-05-07T04:13:39;102156.53;;;9.13;83.85
4273;BME280;63887;53.656;9.810;2023-05-07T04:16:06;102170.13;;;9.27;82.54
4273;BME280;63887;53.656;9.810;2023-05-07T04:18:32;102178.06;;;9.24;82.62
4273;BME280;63887;53.656;9.810;2023-05-07T04:20:58;102173.69;;;9.24;82.43
4273;BME280;63887;53.656;9.810;2023-05-07T04:23:25;102168.28;;;9.31;81.88
4273;BME280;63887;53.656;9.810;2023-05-07T04:25:51;102172.38;;;9.07;82.96
4273;BME280;63887;53.656;9.810;2023-05-07T04:28:17;102174.25;;;9.36;82.51
4273;BME280;63887;53.656;9.810;2023-05-07T04:30:45;102168.94;;;9.39;81.45
4273;BME280;63887;53.656;9.810;2023-05-07T04:33:11;102173.34;;;9.37;81.88
4273;BME280;63887;53.656;9.810;2023-05-07T04:35:37;102166.34;;;9.37;81.72
4273;BME280;63887;53.656;9.810;2023-05-07T04:38:04;102173.56;;;9.29;82.31
4273;BME280;63887;53.656;9.810;2023-05-07T04:40:30;102175.91;;;9.40;82.08
4273;BME280;63887;53.656;9.810;2023-05-07T04:42:56;102170.63;;;9.41;81.72
4273;BME280;63887;53.656;9.810;2023-05-07T04:45:23;102177.47;;;9.45;81.61
4273;BME280;63887;53.656;9.810;2023-05-07T04:47:50;102168.84;;;9.42;81.60
4273;BME280;63887;53.656;9.810;2023-05-07T04:50:17;102166.56;;;9.30;82.21
4273;BME280;63887;53.656;9.810;2023-05-07T04:52:44;102170.72;;;9.38;82.03
4273;BME280;63887;53.656;9.810;2023-05-07T04:55:11;102174.00;;;9.45;81.63
4273;BME280;63887;53.656;9.810;2023-05-07T04:57:37;102176.81;;;9.39;81.02
4273;BME280;63887;53.656;9.810;2023-05-07T05:00:05;102185.28;;;9.47;80.71
4273;BME280;63887;53.656;9.810;2023-05-07T05:02:33;102184.66;;;9.39;81.28
4273;BME280;63887;53.656;9.810;2023-05-07T05:05:01;102183.44;;;9.50;81.31
4273;BME280;63887;53.656;9.810;2023-05-07T05:07:27;102176.44;;;9.52;80.05
4273;BME280;63887;53.656;9.810;2023-05-07T05:09:54;102189.53;;;9.51;80.36
4273;BME280;63887;53.656;9.810;2023-05-07T05:12:22;102180.22;;;9.41;80.13
4273;BME280;63887;53.656;9.810;2023-05-07T05:14:48;102189.75;;;9.43;80.53
4273;BME280;63887;53.656;9.810;2023-05-07T05:17:15;102176.53;;;9.48;81.18
4273;BME280;63887;53.656;9.810;2023-05-07T05:19:41;102188.72;;;9.49;80.34
4273;BME280;63887;53.656;9.810;2023-05-07T05:22:08;102180.88;;;9.49;80.56
4273;BME280;63887;53.656;9.810;2023-05-07T05:24:35;102190.91;;;9.64;80.47
4273;BME280;63887;53.656;9.810;2023-05-07T05:27:01;102198.72;;;9.66;80.02
4273;BME280;63887;53.656;9.810;2023-05-07T05:29:27;102195.63;;;9.51;80.45
4273;BME280;63887;53.656;9.810;2023-05-07T05:31:55;102204.63;;;9.74;80.11
4273;BME280;63887;53.656;9.810;2023-05-07T05:34:21;102209.44;;;9.58;80.65
4273;BME280;63887;53.656;9.810;2023-05-07T05:36:47;102194.41;;;9.65;79.67
4273;BME280;63887;53.656;9.810;2023-05-07T05:39:15;102206.53;;;9.69;80.00
4273;BME280;63887;53.656;9.810;2023-05-07T05:41:41;102204.16;;;9.60;80.03
4273;BME280;63887;53.656;9.810;2023-05-07T05:44:07;102205.25;;;9.52;80.33
4273;BME280;63887;53.656;9.810;2023-05-07T05:46:34;102212.06;;;9.58;80.14
4273;BME280;63887;53.656;9.810;2023-05-07T05:49:00;102209.53;;;9.55;80.32
4273;BME280;63887;53.656;9.810;2023-05-07T05:51:27;102217.53;;;9.49;80.56
4273;BME280;63887;53.656;9.810;2023-05-07T05:53:53;102219.47;;;9.42;80.75
4273;BME280;63887;53.656;9.810;2023-05-07T05:56:21;102228.59;;;9.60;80.41
4273;BME280;63887;53.656;9.810;2023-05-07T05:58:47;102218.94;;;9.62;80.37
4273;BME280;63887;53.656;9.810;2023-05-07T06:01:13;102221.63;;;9.59;80.11
4273;BME280;63887;53.656;9.810;2023-05-07T06:03:40;102217.28;;;9.58;80.12
4273;BME280;63887;53.656;9.810;2023-05-07T06:06:06;102208.81;;;9.48;80.85
4273;BME280;63887;53.656;9.810;2023-05-07T06:08:32;102217.81;;;9.40;81.11
4273;BME280;63887;53.656;9.810;2023-05-07T06:10:58;102218.34;;;9.51;81.58
4273;BME280;63887;53.656;9.810;2023-05-07T06:13:26;102227.41;;;9.72;80.71
4273;BME280;63887;53.656;9.810;2023-05-07T06:15:53;102224.88;;;9.69;79.93
4273;BME280;63887;53.656;9.810;2023-05-07T06:18:19;102230.31;;;9.61;81.03
4273;BME280;63887;53.656;9.810;2023-05-07T06:20:45;102229.59;;;9.56;80.85
4273;BME280;63887;53.656;9.810;2023-05-07T06:23:11;102236.22;;;9.69;80.22
4273;BME280;63887;53.656;9.810;2023-05-07T06:25:38;102243.03;;;9.75;79.79
4273;BME280;63887;53.656;9.810;2023-05-07T06:28:04;102233.47;;;9.74;79.67
4273;BME280;63887;53.656;9.810;2023-05-07T06:30:32;102233.47;;;9.74;80.39
4273;BME280;63887;53.656;9.810;2023-05-07T06:32:58;102228.25;;;9.72;79.51
4273;BME280;63887;53.656;9.810;2023-05-07T06:35:24;102225.16;;;9.89;79.51
4273;BME280;63887;53.656;9.810;2023-05-07T06:37:50;102228.59;;;9.91;79.76
4273;BME280;63887;53.656;9.810;2023-05-07T06:40:17;102221.38;;;9.99;79.59
4273;BME280;63887;53.656;9.810;2023-05-07T06:42:43;102224.50;;;10.12;78.77
4273;BME280;63887;53.656;9.810;2023-05-07T06:45:10;102219.38;;;10.07;78.42
4273;BME280;63887;53.656;9.810;2023-05-07T06:47:37;102217.66;;;10.06;78.74
4273;BME280;63887;53.656;9.810;2023-05-07T06:50:04;102225.53;;;10.06;78.94
4273;BME280;63887;53.656;9.810;2023-05-07T06:52:30;102232.44;;;10.09;78.64
4273;BME280;63887;53.656;9.810;2023-05-07T06:54:56;102224.53;;;10.10;78.56
4273;BME280;63887;53.656;9.810;2023-05-07T06:57:23;102225.97;;;10.22;77.79
4273;BME280;63887;53.656;9.810;2023-05-07T06:59:49;102229.88;;;10.07;79.06
4273;BME280;63887;53.656;9.810;2023-05-07T07:02:16;102226.44;;;10.05;78.76
4273;BME280;63887;53.656;9.810;2023-05-07T07:04:43;102237.47;;;10.16;78.56
4273;BME280;63887;53.656;9.810;2023-05-07T07:07:10;102232.06;;;10.23;78.33
4273;BME280;63887;53.656;9.810;2023-05-07T07:09:36;102235.97;;;10.08;78.09
4273;BME280;63887;53.656;9.810;2023-05-07T07:12:03;102232.53;;;10.06;77.85
4273;BME280;63887;53.656;9.810;2023-05-07T07:14:29;102234.53;;;10.29;78.24
4273;BME280;63887;53.656;9.810;2023-05-07T07:16:55;102232.38;;;10.12;78.72
4273;BME280;63887;53.656;9.810;2023-05-07T07:19:22;102226.78;;;10.24;78.22
4273;BME280;63887;53.656;9.810;2023-05-07T07:21:49;102229.84;;;10.38;77.46
4273;BME280;63887;53.656;9.810;2023-05-07T07:24:15;102232.34;;;10.43;77.85
4273;BME280;63887;53.656;9.810;2023-05-07T07:26:45;102229.78;;;10.41;77.44
4273;BME280;63887;53.656;9.810;2023-05-07T07:29:12;102233.56;;;10.31;77.60
4273;BME280;63887;53.656;9.810;2023-05-07T07:31:38;102228.03;;;10.40;77.07
4273;BME280;63887;53.656;9.810;2023-05-07T07:34:04;102229.31;;;10.55;76.92
4273;BME280;63887;53.656;9.810;2023-05-07T07:36:31;102224.13;;;10.54;77.30
4273;BME280;63887;53.656;9.810;2023-05-07T07:38:58;102228.09;;;10.67;77.07
4273;BME280;63887;53.656;9.810;2023-05-07T07:41:25;102230.13;;;10.85;76.27
4273;BME280;63887;53.656;9.810;2023-05-07T07:43:51;102230.03;;;10.88;75.75
4273;BME280;63887;53.656;9.810;2023-05-07T07:46:17;102236.84;;;10.94;76.08
4273;BME280;63887;53.656;9.810;2023-05-07T07:48:44;102236.28;;;10.84;76.08
4273;BME280;63887;53.656;9.810;2023-05-07T07:51:10;102245.53;;;10.96;75.83
4273;BME280;63887;53.656;9.810;2023-05-07T07:53:36;102242.59;;;10.79;76.10
4273;BME280;63887;53.656;9.810;2023-05-07T07:56:04;102239.53;;;10.92;75.10
4273;BME280;63887;53.656;9.810;2023-05-07T07:58:30;102235.38;;;10.85;75.63
4273;BME280;63887;53.656;9.810;2023-05-07T08:00:57;102240.22;;;10.97;76.04
4273;BME280;63887;53.656;9.810;2023-05-07T08:03:23;102246.00;;;11.09;74.86
4273;BME280;63887;53.656;9.810;2023-05-07T08:05:49;102247.13;;;11.01;74.74
4273;BME280;63887;53.656;9.810;2023-05-07T08:08:16;102249.88;;;10.97;74.92
4273;BME280;63887;53.656;9.810;2023-05-07T08:10:42;102245.09;;;11.10;74.33
4273;BME280;63887;53.656;9.810;2023-05-07T08:13:10;102247.00;;;11.04;75.74
4273;BME280;63887;53.656;9.810;2023-05-07T08:15:37;102250.59;;;11.02;74.67
4273;BME280;63887;53.656;9.810;2023-05-07T08:18:03;102248.84;;;11.02;74.15
4273;BME280;63887;53.656;9.810;2023-05-07T08:20:29;102250.09;;;10.91;74.99
4273;BME280;63887;53.656;9.810;2023-05-07T08:22:56;102257.69;;;10.98;74.92
4273;BME280;63887;53.656;9.810;2023-05-07T08:25:22;102259.50;;;10.96;74.57
4273;BME280;63887;53.656;9.810;2023-05-07T08:27:48;102258.59;;;10.97;75.16
4273;BME280;63887;53.656;9.810;2023-05-07T08:30:16;102264.31;;;11.10;74.47
4273;BME280;63887;53.656;9.810;2023-05-07T08:32:42;102261.13;;;11.00;75.51
4273;BME280;63887;53.656;9.810;2023-05-07T08:35:09;102251.97;;;10.86;75.50
4273;BME280;63887;53.656;9.810;2023-05-07T08:37:35;102249.00;;;10.96;74.80
4273;BME280;63887;53.656;9.810;2023-05-07T08:40:01;102267.44;;;10.95;75.28
4273;BME280;63887;53.656;9.810;2023-05-07T08:42:28;102266.16;;;11.08;74.77
4273;BME280;63887;53.656;9.810;2023-05-07T08:44:55;102262.81;;;11.03;75.66
4273;BME280;63887;53.656;9.810;2023-05-07T08:47:27;102265.13;;;11.12;74.66
4273;BME280;63887;53.656;9.810;2023-05-07T08:49:55;102268.06;;;11.03;75.51
4273;BME280;63887;53.656;9.810;2023-05-07T08:52:21;102268.91;;;11.30;73.42
4273;BME280;63887;53.656;9.810;2023-05-07T08:54:47;102274.47;;;11.21;75.20
4273;BME280;63887;53.656;9.810;2023-05-07T08:57:14;102273.75;;;11.16;75.12
4273;BME280;63887;53.656;9.810;2023-05-07T08:59:40;102269.56;;;11.10;74.60
4273;BME280;63887;53.656;9.810;2023-05-07T09:02:07;102274.72;;;11.40;74.46
4273;BME280;63887;53.656;9.810;2023-05-07T09:04:36;102277.97;;;11.48;73.32
4273;BME280;63887;53.656;9.810;2023-05-07T09:07:02;102277.56;;;11.33;74.29
4273;BME280;63887;53.656;9.810;2023-05-07T09:09:31;102285.03;;;11.19;74.17
4273;BME280;63887;53.656;9.810;2023-05-07T09:11:58;102281.41;;;11.23;74.49
4273;BME280;63887;53.656;9.810;2023-05-07T09:14:24;102282.91;;;11.30;73.75
4273;BME280;63887;53.656;9.810;2023-05-07T09:16:51;102277.28;;;11.41;73.00
4273;BME280;63887;53.656;9.810;2023-05-07T09:19:21;102287.97;;;11.37;73.13
4273;BME280;63887;53.656;9.810;2023-05-07T09:21:49;102293.22;;;11.37;73.19
4273;BME280;63887;53.656;9.810;2023-05-07T09:24:15;102295.69;;;11.41;73.71
4273;BME280;63887;53.656;9.810;2023-05-07T09:26:42;102289.78;;;11.34;74.29
4273;BME280;63887;53.656;9.810;2023-05-07T09:29:09;102293.78;;;11.46;72.74
4273;BME280;63887;53.656;9.810;2023-05-07T09:31:36;102291.91;;;11.50;72.82
4273;BME280;63887;53.656;9.810;2023-05-07T09:34:04;102291.38;;;11.39;73.48
4273;BME280;63887;53.656;9.810;2023-05-07T09:36:31;102287.22;;;11.58;72.84
4273;BME280;63887;53.656;9.810;2023-05-07T09:39:00;102288.69;;;11.67;71.89
4273;BME280;63887;53.656;9.810;2023-05-07T09:41:26;102297.47;;;11.65;72.60
4273;BME280;63887;53.656;9.810;2023-05-07T09:43:53;102288.31;;;11.77;72.00
4273;BME280;63887;53.656;9.810;2023-05-07T09:46:19;102298.81;;;11.79;72.21
4273;BME280;63887;53.656;9.810;2023-05-07T09:48:49;102304.25;;;11.98;73.19
4273;BME280;63887;53.656;9.810;2023-05-07T09:51:21;102296.50;;;11.94;70.73
4273;BME280;63887;53.656;9.810;2023-05-07T09:53:48;102298.53;;;11.86;70.70
4273;BME280;63887;53.656;9.810;2023-05-07T09:56:17;102301.25;;;11.83;72.13
4273;BME280;63887;53.656;9.810;2023-05-07T09:58:44;102304.19;;;11.99;70.79
4273;BME280;63887;53.656;9.810;2023-05-07T10:01:11;102301.94;;;12.13;70.12
4273;BME280;63887;53.656;9.810;2023-05-07T10:03:38;102303.09;;;12.06;71.34
4273;BME280;63887;53.656;9.810;2023-05-07T10:06:05;102309.56;;;11.96;70.83
4273;BME280;63887;53.656;9.810;2023-05-07T10:08:32;102305.81;;;12.03;70.38
4273;BME280;63887;53.656;9.810;2023-05-07T10:10:59;102306.41;;;12.11;70.58
4273;BME280;63887;53.656;9.810;2023-05-07T10:13:26;102304.00;;;12.05;71.39
4273;BME280;63887;53.656;9.810;2023-05-07T10:15:53;102305.66;;;11.83;70.65
4273;BME280;63887;53.656;9.810;2023-05-07T10:18:20;102300.41;;;11.83;70.66
4273;BME280;63887;53.656;9.810;2023-05-07T10:20:48;102303.94;;;11.82;71.01
4273;BME280;63887;53.656;9.810;2023-05-07T10:23:17;102306.06;;;11.71;71.34
4273;BME280;63887;53.656;9.810;2023-05-07T10:25:45;102293.66;;;11.74;70.47
4273;BME280;63887;53.656;9.810;2023-05-07T10:28:12;102292.28;;;11.64;71.42
4273;BME280;63887;53.656;9.810;2023-05-07T10:30:44;102293.78;;;11.71;71.55
4273;BME280;63887;53.656;9.810;2023-05-07T10:33:15;102288.34;;;11.51;71.48
4273;BME280;63887;53.656;9.810;2023-05-07T10:35:44;102289.56;;;11.41;72.41
4273;BME280;63887;53.656;9.810;2023-05-07T10:38:11;102297.41;;;11.67;71.48
4273;BME280;63887;53.656;9.810;2023-05-07T10:40:37;102294.28;;;11.82;71.40
4273;BME280;63887;53.656;9.810;2023-05-07T10:43:04;102297.34;;;11.95;70.59
4273;BME280;63887;53.656;9.810;2023-05-07T10:45:31;102295.28;;;12.03;69.73
4273;BME280;63887;53.656;9.810;2023-05-07T10:48:08;102299.41;;;12.10;69.61
4273;BME280;63887;53.656;9.810;2023-05-07T10:50:35;102301.59;;;12.22;70.31
4273;BME280;63887;53.656;9.810;2023-05-07T10:55:47;102298.13;;;12.22;68.62
4273;BME280;63887;53.656;9.810;2023-05-07T10:58:23;102308.00;;;12.15;69.27
4273;BME280;63887;53.656;9.810;2023-05-07T11:00:50;102303.31;;;12.23;68.83
4273;BME280;63887;53.656;9.810;2023-05-07T11:03:18;102300.69;;;12.23;69.11
4273;BME280;63887;53.656;9.810;2023-05-07T11:05:47;102300.97;;;12.16;69.51
4273;BME280;63887;53.656;9.810;2023-05-07T11:08:14;102304.09;;;12.49;68.59
4273;BME280;63887;53.656;9.810;2023-05-07T11:10:50;102297.81;;;12.53;67.32
4273;BME280;63887;53.656;9.810;2023-05-07T11:13:16;102304.34;;;12.66;67.08
4273;BME280;63887;53.656;9.810;2023-05-07T11:15:43;102308.09;;;12.59;68.49
4273;BME280;63887;53.656;9.810;2023-05-07T11:18:10;102300.34;;;12.78;67.10
4273;BME280;63887;53.656;9.810;2023-05-07T11:20:45;102310.47;;;12.89;66.61
4273;BME280;63887;53.656;9.810;2023-05-07T11:25:57;102306.66;;;12.74;65.93
4273;BME280;63887;53.656;9.810;2023-05-07T11:28:24;102298.63;;;12.77;67.78
4273;BME280;63887;53.656;9.810;2023-05-07T11:30:50;102292.88;;;13.11;66.25
4273;BME280;63887;53.656;9.810;2023-05-07T11:33:17;102301.91;;;13.27;65.87
4273;BME280;63887;53.656;9.810;2023-05-07T11:35:46;102292.59;;;13.19;66.26
4273;BME280;63887;53.656;9.810;2023-05-07T11:38:12;102285.72;;;13.14;66.23
4273;BME280;63887;53.656;9.810;2023-05-07T11:40:48;102290.03;;;13.37;65.63
4273;BME280;63887;53.656;9.810;2023-05-07T11:43:14;102287.81;;;13.28;64.81
4273;BME280;63887;53.656;9.810;2023-05-07T11:45:40;102278.56;;;13.38;65.42
4273;BME280;63887;53.656;9.810;2023-05-07T11:48:06;102273.19;;;13.41;63.82
4273;BME280;63887;53.656;9.810;2023-05-07T11:50:33;102282.28;;;13.34;65.67
4273;BME280;63887;53.656;9.810;2023-05-07T11:53:00;102278.66;;;13.37;64.68
4273;BME280;63887;53.656;9.810;2023-05-07T11:55:33;102274.41;;;13.55;64.75
4273;BME280;63887;53.656;9.810;2023-05-07T11:57:59;102272.34;;;13.61;64.27
4273;BME280;63887;53.656;9.810;2023-05-07T12:00:25;102269.50;;;13.66;65.52
4273;BME280;63887;53.656;9.810;2023-05-07T12:02:52;102270.28;;;13.68;64.29
4273;BME280;63887;53.656;9.810;2023-05-07T12:05:18;102268.38;;;13.71;64.72
4273;BME280;63887;53.656;9.810;2023-05-07T12:07:44;102268.03;;;13.79;63.58
4273;BME280;63887;53.656;9.810;2023-05-07T12:10:12;102267.09;;;13.80;64.54
4273;BME280;63887;53.656;9.810;2023-05-07T12:12:39;102270.53;;;13.82;64.07
4273;BME280;63887;53.656;9.810;2023-05-07T12:15:07;102274.09;;;13.81;63.65
4273;BME280;63887;53.656;9.810;2023-05-07T12:17:33;102276.31;;;13.71;64.82
4273;BME280;63887;53.656;9.810;2023-05-07T12:20:00;102275.16;;;13.77;63.73
4273;BME280;63887;53.656;9.810;2023-05-07T12:22:26;102281.94;;;13.83;64.93
4273;BME280;63887;53.656;9.810;2023-05-07T12:24:56;102278.59;;;13.99;64.42
4273;BME280;63887;53.656;9.810;2023-05-07T12:27:25;102276.72;;;14.01;65.01
4273;BME280;63887;53.656;9.810;2023-05-07T12:29:51;102273.47;;;14.15;63.86
4273;BME280;63887;53.656;9.810;2023-05-07T12:32:18;102276.25;;;14.31;63.35
4273;BME280;63887;53.656;9.810;2023-05-07T12:34:44;102287.31;;;14.39;62.65
4273;BME280;63887;53.656;9.810;2023-05-07T12:37:11;102282.31;;;14.33;63.41
4273;BME280;63887;53.656;9.810;2023-05-07T12:39:37;102279.47;;;14.19;62.10
4273;BME280;63887;53.656;9.810;2023-05-07T12:42:04;102278.81;;;14.32;62.79
4273;BME280;63887;53.656;9.810;2023-05-07T12:44:32;102271.06;;;14.29;62.99
4273;BME280;63887;53.656;9.810;2023-05-07T12:47:01;102276.25;;;14.31;62.42
4273;BME280;63887;53.656;9.810;2023-05-07T12:49:27;102275.97;;;14.18;62.68
4273;BME280;63887;53.656;9.810;2023-05-07T12:51:54;102271.38;;;14.22;61.62
4273;BME280;63887;53.656;9.810;2023-05-07T12:54:29;102273.47;;;14.15;62.67
4273;BME280;63887;53.656;9.810;2023-05-07T12:57:02;102266.59;;;14.11;63.41
4273;BME280;63887;53.656;9.810;2023-05-07T12:59:34;102268.13;;;14.17;62.58
4273;BME280;63887;53.656;9.810;2023-05-07T13:02:01;102272.53;;;14.35;62.73
4273;BME280;63887;53.656;9.810;2023-05-07T13:04:27;102276.28;;;14.50;63.74
4273;BME280;63887;53.656;9.810;2023-05-07T13:06:54;102264.94;;;14.48;62.35
4273;BME280;63887;53.656;9.810;2023-05-07T13:09:20;102266.41;;;14.35;63.65